createdAt,value
2023-04-30T00:00:31.541Z,2.33
2023-04-30T00:02:59.060Z,2.07
2023-04-30T00:05:26.622Z,2.10
2023-04-30T00:07:54.056Z,2.00
2023-04-30T00:10:21.634Z,2.10
2023-04-30T00:12:49.159Z,2.23
2023-04-30T00:15:18.061Z,2.07
2023-04-30T00:17:45.762Z,2.43
2023-04-30T00:20:14.081Z,2.33
2023-04-30T00:22:41.621Z,2.37
2023-04-30T00:25:09.583Z,2.90
2023-04-30T00:27:38.770Z,1.80
2023-04-30T00:30:08.825Z,2.50
2023-04-30T00:32:37.693Z,2.53
2023-04-30T00:35:05.718Z,2.50
2023-04-30T00:37:33.663Z,2.30
2023-04-30T00:40:01.123Z,2.27
2023-04-30T00:42:28.684Z,2.30
2023-04-30T00:44:56.156Z,2.50
2023-04-30T00:47:25.020Z,2.73
2023-04-30T00:49:54.360Z,2.30
2023-04-30T00:52:22.040Z,2.53
2023-04-30T00:54:50.685Z,2.37
2023-04-30T00:57:18.415Z,2.07
2023-04-30T00:59:46.856Z,2.97
2023-04-30T01:02:14.500Z,2.40
2023-04-30T01:04:42.485Z,3.00
2023-04-30T01:07:11.290Z,2.27
2023-04-30T01:09:38.953Z,2.67
2023-04-30T01:12:14.387Z,2.10
2023-04-30T01:14:54.185Z,2.53
2023-04-30T01:17:28.797Z,2.23
2023-04-30T01:19:57.352Z,2.33
2023-04-30T01:22:36.690Z,2.20
2023-04-30T01:25:19.751Z,3.00
2023-04-30T01:28:03.894Z,2.50
2023-04-30T01:30:32.770Z,2.93
2023-04-30T01:33:00.627Z,2.27
2023-04-30T01:35:41.077Z,2.20
2023-04-30T01:38:17.987Z,2.10
2023-04-30T01:40:53.471Z,2.23
2023-04-30T01:43:33.304Z,2.20
2023-04-30T01:46:09.076Z,1.90
2023-04-30T01:48:44.387Z,2.03
2023-04-30T01:51:20.239Z,2.23
2023-04-30T01:53:47.868Z,2.30
2023-04-30T01:56:22.633Z,2.43
2023-04-30T01:58:53.774Z,2.10
2023-04-30T02:01:28.214Z,2.57
2023-04-30T02:03:55.906Z,2.00
2023-04-30T02:06:26.801Z,2.57
2023-04-30T02:08:54.347Z,2.23
2023-04-30T02:11:24.107Z,2.33
2023-04-30T02:13:52.851Z,2.47
2023-04-30T02:16:20.727Z,2.30
2023-04-30T02:18:48.757Z,2.23
2023-04-30T02:21:16.271Z,2.40
2023-04-30T02:23:43.749Z,2.13
2023-04-30T02:26:11.318Z,2.60
2023-04-30T02:28:38.759Z,2.10
2023-04-30T02:31:07.575Z,2.77
2023-04-30T02:33:35.073Z,2.40
2023-04-30T02:36:02.728Z,2.33
2023-04-30T02:38:30.243Z,2.60
2023-04-30T02:40:57.729Z,3.37
2023-04-30T02:43:25.224Z,2.47
2023-04-30T02:45:52.770Z,2.43
2023-04-30T02:48:21.690Z,1.93
2023-04-30T02:50:49.148Z,2.47
2023-04-30T02:53:16.766Z,2.40
2023-04-30T02:55:44.204Z,2.00
2023-04-30T02:58:11.755Z,2.20
2023-04-30T03:00:39.258Z,2.77
2023-04-30T03:03:07.012Z,2.47
2023-04-30T03:05:35.946Z,3.00
2023-04-30T03:08:03.761Z,1.80
2023-04-30T03:10:31.245Z,2.60
2023-04-30T03:12:58.937Z,1.90
2023-04-30T03:15:26.777Z,2.00
2023-04-30T03:17:54.393Z,1.63
2023-04-30T03:20:22.061Z,3.30
2023-04-30T03:22:50.812Z,1.50
2023-04-30T03:25:18.312Z,2.30
2023-04-30T03:27:45.934Z,1.50
2023-04-30T03:30:13.454Z,1.70
2023-04-30T03:32:40.946Z,2.90
2023-04-30T03:35:09.667Z,1.83
2023-04-30T03:37:37.138Z,1.60
2023-04-30T03:40:07.969Z,1.90
2023-04-30T03:42:35.454Z,2.03
2023-04-30T03:45:02.992Z,1.70
2023-04-30T03:47:30.712Z,1.80
2023-04-30T03:49:58.206Z,1.47
2023-04-30T03:52:26.493Z,1.57
2023-04-30T03:54:54.418Z,1.60
2023-04-30T03:57:23.832Z,1.60
2023-04-30T03:59:51.699Z,1.77
2023-04-30T04:02:19.419Z,1.60
2023-04-30T04:04:47.088Z,1.43
2023-04-30T04:07:15.123Z,1.90
2023-04-30T04:09:42.792Z,1.50
2023-04-30T04:12:10.302Z,1.70
2023-04-30T04:14:39.272Z,1.40
2023-04-30T04:17:06.719Z,1.43
2023-04-30T04:19:34.294Z,2.30
2023-04-30T04:22:01.935Z,1.60
2023-04-30T04:24:29.567Z,1.40
2023-04-30T04:26:58.027Z,1.23
2023-04-30T04:29:25.640Z,1.40
2023-04-30T04:31:55.561Z,1.50
2023-04-30T04:34:23.392Z,1.47
2023-04-30T04:36:50.814Z,1.27
2023-04-30T04:39:18.384Z,1.80
2023-04-30T04:41:46.696Z,1.70
2023-04-30T04:44:14.183Z,1.43
2023-04-30T04:46:42.295Z,1.73
2023-04-30T04:49:11.259Z,1.90
2023-04-30T04:51:39.533Z,1.60
2023-04-30T04:54:07.972Z,1.80
2023-04-30T04:56:35.477Z,1.60
2023-04-30T04:59:03.294Z,2.23
2023-04-30T05:01:30.902Z,2.80
2023-04-30T05:03:58.436Z,2.67
2023-04-30T05:06:30.152Z,2.73
2023-04-30T05:08:57.659Z,2.10
2023-04-30T05:11:25.120Z,2.30
2023-04-30T05:13:52.878Z,1.90
2023-04-30T05:16:20.439Z,2.70
2023-04-30T05:18:47.906Z,2.67
2023-04-30T05:21:15.388Z,2.10
2023-04-30T05:23:44.928Z,2.83
2023-04-30T05:26:12.400Z,3.50
2023-04-30T05:28:39.965Z,2.70
2023-04-30T05:31:07.392Z,3.27
2023-04-30T05:33:36.901Z,3.87
2023-04-30T05:36:04.849Z,3.40
2023-04-30T05:38:32.403Z,3.17
2023-04-30T05:41:01.253Z,3.93
2023-04-30T05:43:33.070Z,2.63
2023-04-30T05:46:03.724Z,3.93
2023-04-30T05:48:31.274Z,3.90
2023-04-30T05:50:58.810Z,3.83
2023-04-30T05:53:26.310Z,3.80
2023-04-30T05:55:53.775Z,4.00
2023-04-30T05:58:22.610Z,3.17
2023-04-30T06:00:51.858Z,3.63
2023-04-30T06:03:20.210Z,4.17
2023-04-30T06:05:48.585Z,3.40
2023-04-30T06:08:16.264Z,3.60
2023-04-30T06:10:43.881Z,3.43
2023-04-30T06:13:11.402Z,3.90
2023-04-30T06:15:40.316Z,3.17
2023-04-30T06:18:07.937Z,3.40
2023-04-30T06:20:35.500Z,3.90
2023-04-30T06:23:03.816Z,3.67
2023-04-30T06:25:31.377Z,2.97
2023-04-30T06:27:58.953Z,3.80
2023-04-30T06:30:26.897Z,3.40
2023-04-30T06:32:55.838Z,3.30
2023-04-30T06:35:23.371Z,3.60
2023-04-30T06:37:51.199Z,3.57
2023-04-30T06:40:18.779Z,3.33
2023-04-30T06:42:47.639Z,3.63
2023-04-30T06:45:15.946Z,3.13
2023-04-30T06:47:45.429Z,3.50
2023-04-30T06:50:15.565Z,3.30
2023-04-30T06:52:43.088Z,3.80
2023-04-30T06:55:10.824Z,2.90
2023-04-30T06:57:38.300Z,2.47
2023-04-30T07:00:06.719Z,2.67
2023-04-30T07:02:34.344Z,2.57
2023-04-30T07:05:01.828Z,3.50
2023-04-30T07:07:31.226Z,2.50
2023-04-30T07:09:58.709Z,2.70
2023-04-30T07:12:26.752Z,2.70
2023-04-30T07:14:54.337Z,2.40
2023-04-30T07:17:21.830Z,2.70
2023-04-30T07:19:49.284Z,2.63
2023-04-30T07:22:16.775Z,2.50
2023-04-30T07:24:45.568Z,2.37
2023-04-30T07:27:13.036Z,2.97
2023-04-30T07:29:40.580Z,2.93
2023-04-30T07:32:08.041Z,3.17
2023-04-30T07:34:35.536Z,2.20
2023-04-30T07:37:03.827Z,2.57
2023-04-30T07:39:31.860Z,2.47
2023-04-30T07:42:02.861Z,2.87
2023-04-30T07:44:30.354Z,2.70
2023-04-30T07:46:58.028Z,2.97
2023-04-30T07:49:26.035Z,2.93
2023-04-30T07:51:53.490Z,2.10
2023-04-30T07:54:21.090Z,3.27
2023-04-30T07:56:49.489Z,2.10
2023-04-30T07:59:18.766Z,2.77
2023-04-30T08:01:46.360Z,3.13
2023-04-30T08:04:13.854Z,3.10
2023-04-30T08:06:41.343Z,3.07
2023-04-30T08:09:08.963Z,3.00
2023-04-30T08:11:36.458Z,3.43
2023-04-30T08:14:04.621Z,2.57
2023-04-30T08:16:33.478Z,2.20
2023-04-30T08:19:00.968Z,2.80
2023-04-30T08:21:28.635Z,2.80
2023-04-30T08:23:57.126Z,2.27
2023-04-30T08:26:25.113Z,2.50
2023-04-30T08:28:52.544Z,2.50
2023-04-30T08:31:20.058Z,2.07
2023-04-30T08:33:48.920Z,3.40
2023-04-30T08:36:16.446Z,2.93
2023-04-30T08:38:43.846Z,3.13
2023-04-30T08:41:13.299Z,2.47
2023-04-30T08:43:41.137Z,2.40
2023-04-30T08:46:08.738Z,2.60
2023-04-30T08:48:36.297Z,2.30
2023-04-30T08:51:05.732Z,2.57
2023-04-30T08:53:36.686Z,2.47
2023-04-30T08:56:04.700Z,2.30
2023-04-30T08:58:32.193Z,2.87
2023-04-30T09:01:00.404Z,2.67
2023-04-30T09:03:28.399Z,2.03
2023-04-30T09:05:57.024Z,3.03
2023-04-30T09:08:44.421Z,2.90
2023-04-30T09:11:23.532Z,2.20
2023-04-30T09:13:53.240Z,2.27
2023-04-30T09:16:21.616Z,2.50
2023-04-30T09:18:49.595Z,3.03
2023-04-30T09:21:17.125Z,2.30
2023-04-30T09:23:57.697Z,2.10
2023-04-30T09:26:33.930Z,2.70
2023-04-30T09:29:07.512Z,3.40
2023-04-30T09:31:35.859Z,2.17
2023-04-30T09:34:04.186Z,2.53
2023-04-30T09:36:32.063Z,2.33
2023-04-30T09:39:10.837Z,3.20
2023-04-30T09:41:39.503Z,2.50
2023-04-30T09:44:06.933Z,2.70
2023-04-30T09:46:37.169Z,3.27
2023-04-30T09:49:07.086Z,2.43
2023-04-30T09:51:35.626Z,2.50
2023-04-30T09:54:04.640Z,3.50
2023-04-30T09:56:39.318Z,2.57
2023-04-30T09:59:09.168Z,2.73
2023-04-30T10:01:40.394Z,3.17
2023-04-30T10:04:08.914Z,2.73
2023-04-30T10:06:37.086Z,2.37
2023-04-30T10:09:07.727Z,2.70
2023-04-30T10:11:38.805Z,2.43
2023-04-30T10:14:11.419Z,2.40
2023-04-30T10:16:44.687Z,2.57
2023-04-30T10:19:16.119Z,3.53
2023-04-30T10:21:46.571Z,2.77
2023-04-30T10:24:14.906Z,3.33
2023-04-30T10:26:44.599Z,3.17
2023-04-30T10:29:14.414Z,2.30
2023-04-30T10:31:43.204Z,2.27
2023-04-30T10:34:22.741Z,2.30
2023-04-30T10:36:58.915Z,2.70
2023-04-30T10:39:28.760Z,2.90
2023-04-30T10:42:03.712Z,2.73
2023-04-30T10:44:34.314Z,2.90
2023-04-30T10:47:02.656Z,2.80
2023-04-30T10:49:30.332Z,2.40
2023-04-30T10:52:01.393Z,2.30
2023-04-30T10:54:30.397Z,2.50
2023-04-30T10:57:12.614Z,2.37
2023-04-30T10:59:45.072Z,3.47
2023-04-30T11:02:13.768Z,2.60
2023-04-30T11:05:13.304Z,2.20
2023-04-30T11:07:51.506Z,2.87
2023-04-30T11:10:22.758Z,2.80
2023-04-30T11:12:53.043Z,2.80
2023-04-30T11:15:22.896Z,2.80
2023-04-30T11:17:51.342Z,3.73
2023-04-30T11:20:22.004Z,3.03
2023-04-30T11:22:49.961Z,2.27
2023-04-30T11:25:20.645Z,2.83
2023-04-30T11:27:48.184Z,2.63
2023-04-30T11:30:18.474Z,3.10
2023-04-30T11:32:48.108Z,2.40
2023-04-30T11:35:18.935Z,2.63
2023-04-30T11:37:46.861Z,2.73
2023-04-30T11:40:15.908Z,2.83
2023-04-30T11:42:46.637Z,2.20
2023-04-30T11:45:17.398Z,3.03
2023-04-30T11:47:48.088Z,2.20
2023-04-30T11:50:19.265Z,3.03
2023-04-30T11:52:50.836Z,2.30
2023-04-30T11:55:19.754Z,2.60
2023-04-30T11:57:49.224Z,3.07
2023-04-30T12:00:18.686Z,2.13
2023-04-30T12:02:49.645Z,3.00
2023-04-30T12:05:18.782Z,3.20
2023-04-30T12:07:48.100Z,1.97
2023-04-30T12:10:16.003Z,3.20
2023-04-30T12:12:44.948Z,2.67
2023-04-30T12:15:17.102Z,2.63
2023-04-30T12:17:45.054Z,2.90
2023-04-30T12:20:16.184Z,2.60
2023-04-30T12:22:44.684Z,2.83
2023-04-30T12:25:14.800Z,2.40
2023-04-30T12:27:43.185Z,3.30
2023-04-30T12:30:11.233Z,3.13
2023-04-30T12:32:41.195Z,2.63
2023-04-30T12:35:10.487Z,2.60
2023-04-30T12:37:43.415Z,2.77
2023-04-30T12:40:12.011Z,2.80
2023-04-30T12:42:39.555Z,3.17
2023-04-30T12:45:08.463Z,2.50
2023-04-30T12:47:40.412Z,3.50
2023-04-30T12:50:11.153Z,3.20
2023-04-30T12:52:40.872Z,3.23
2023-04-30T12:55:26.944Z,2.90
2023-04-30T12:58:05.697Z,2.80
2023-04-30T13:00:44.778Z,2.60
2023-04-30T13:03:13.008Z,2.60
2023-04-30T13:05:41.496Z,3.90
2023-04-30T13:08:10.320Z,2.73
2023-04-30T13:10:43.362Z,2.43
2023-04-30T13:13:11.645Z,2.00
2023-04-30T13:15:40.387Z,2.83
2023-04-30T13:18:09.675Z,3.20
2023-04-30T13:20:37.478Z,2.30
2023-04-30T13:23:06.432Z,2.93
2023-04-30T13:25:36.542Z,2.93
2023-04-30T13:28:04.249Z,2.03
2023-04-30T13:30:38.337Z,2.50
2023-04-30T13:33:06.143Z,2.50
2023-04-30T13:35:34.095Z,2.37
2023-04-30T13:38:01.533Z,2.00
2023-04-30T13:40:30.668Z,1.90
2023-04-30T13:42:59.398Z,2.40
2023-04-30T13:45:26.866Z,2.57
2023-04-30T13:47:54.385Z,2.40
2023-04-30T13:50:21.886Z,2.60
2023-04-30T13:52:49.338Z,2.17
2023-04-30T13:55:16.798Z,2.77
2023-04-30T13:57:44.221Z,2.20
2023-04-30T14:00:15.892Z,2.60
2023-04-30T14:02:43.583Z,2.67
2023-04-30T14:05:11.329Z,2.23
2023-04-30T14:07:39.110Z,3.00
2023-04-30T14:10:08.065Z,2.57
2023-04-30T14:12:35.639Z,2.10
2023-04-30T14:15:03.590Z,2.20
2023-04-30T14:17:32.512Z,2.20
2023-04-30T14:20:00.155Z,2.20
2023-04-30T14:22:27.776Z,2.53
2023-04-30T14:24:55.244Z,2.50
2023-04-30T14:27:23.362Z,2.60
2023-04-30T14:29:51.436Z,2.30
2023-04-30T14:32:18.961Z,2.20
2023-04-30T14:34:47.986Z,1.90
2023-04-30T14:37:16.714Z,2.67
2023-04-30T14:39:44.761Z,2.23
2023-04-30T14:42:12.661Z,2.30
2023-04-30T14:44:41.170Z,2.10
2023-04-30T14:47:08.986Z,1.97
2023-04-30T14:49:36.609Z,2.60
2023-04-30T14:52:06.009Z,2.03
2023-04-30T14:54:33.920Z,2.10
2023-04-30T14:57:01.584Z,2.70
2023-04-30T14:59:29.069Z,2.10
2023-04-30T15:01:56.644Z,2.40
2023-04-30T15:04:24.239Z,2.00
2023-04-30T15:06:52.040Z,2.20
2023-04-30T15:09:20.947Z,2.07
2023-04-30T15:11:48.704Z,2.30
2023-04-30T15:14:16.998Z,1.73
2023-04-30T15:16:44.695Z,2.00
2023-04-30T15:19:12.231Z,2.10
2023-04-30T15:21:39.933Z,2.30
2023-04-30T15:24:08.865Z,2.00
2023-04-30T15:26:37.819Z,1.60
2023-04-30T15:29:05.794Z,2.70
2023-04-30T15:31:33.295Z,1.93
2023-04-30T15:34:00.837Z,1.97
2023-04-30T15:36:28.522Z,2.00
2023-04-30T15:38:56.034Z,2.10
2023-04-30T15:41:23.602Z,2.20
2023-04-30T15:43:52.413Z,2.20
2023-04-30T15:46:20.168Z,2.30
2023-04-30T15:48:47.641Z,2.30
2023-04-30T15:51:15.104Z,2.03
2023-04-30T15:53:42.583Z,2.03
2023-04-30T15:56:10.825Z,2.50
2023-04-30T15:58:38.413Z,2.27
2023-04-30T16:01:07.382Z,2.40
2023-04-30T16:03:34.919Z,1.80
2023-04-30T16:06:02.812Z,3.17
2023-04-30T16:08:30.598Z,1.90
2023-04-30T16:10:58.100Z,2.60
2023-04-30T16:13:25.614Z,2.33
2023-04-30T16:15:53.115Z,2.00
2023-04-30T16:18:22.908Z,2.37
2023-04-30T16:20:51.785Z,1.80
2023-04-30T16:23:19.309Z,2.30
2023-04-30T16:25:46.782Z,2.07
2023-04-30T16:28:14.227Z,1.80
2023-04-30T16:30:41.725Z,2.50
2023-04-30T16:33:09.780Z,2.00
2023-04-30T16:35:38.670Z,2.50
2023-04-30T16:38:06.232Z,2.20
2023-04-30T16:40:34.735Z,2.47
2023-04-30T16:43:02.257Z,2.13
2023-04-30T16:45:30.303Z,2.00
2023-04-30T16:47:57.899Z,2.10
2023-04-30T16:50:26.736Z,2.30
2023-04-30T16:52:55.638Z,1.80
2023-04-30T16:55:23.323Z,2.13
2023-04-30T16:57:50.854Z,2.20
2023-04-30T17:00:18.685Z,1.93
2023-04-30T17:02:48.601Z,2.00
2023-04-30T17:05:16.633Z,1.73
2023-04-30T17:07:44.505Z,1.83
2023-04-30T17:10:14.838Z,1.70
2023-04-30T17:12:42.534Z,1.80
2023-04-30T17:15:10.635Z,2.03
2023-04-30T17:17:38.116Z,1.90
2023-04-30T17:20:06.831Z,1.90
2023-04-30T17:22:34.390Z,2.10
2023-04-30T17:25:02.159Z,2.30
2023-04-30T17:27:31.162Z,1.93
2023-04-30T17:29:58.875Z,1.80
2023-04-30T17:32:26.970Z,2.00
2023-04-30T17:34:54.613Z,2.10
2023-04-30T17:37:22.300Z,1.90
2023-04-30T17:39:50.072Z,1.97
2023-04-30T17:42:17.814Z,1.80
2023-04-30T17:44:46.653Z,2.17
2023-04-30T17:47:16.181Z,2.23
2023-04-30T17:49:43.870Z,2.20
2023-04-30T17:52:11.417Z,1.43
2023-04-30T17:54:39.104Z,1.83
2023-04-30T17:57:06.608Z,2.03
2023-04-30T17:59:34.746Z,1.93
2023-04-30T18:02:05.451Z,1.80
2023-04-30T18:04:33.011Z,1.83
2023-04-30T18:07:00.535Z,1.70
2023-04-30T18:09:28.238Z,2.20
2023-04-30T18:11:56.378Z,2.17
2023-04-30T18:14:25.030Z,1.73
2023-04-30T18:16:53.112Z,2.43
2023-04-30T18:19:23.366Z,2.20
2023-04-30T18:21:53.504Z,2.10
2023-04-30T18:24:21.596Z,2.80
2023-04-30T18:26:49.054Z,1.80
2023-04-30T18:29:17.754Z,1.77
2023-04-30T18:31:45.432Z,2.20
2023-04-30T18:34:13.052Z,2.33
2023-04-30T18:36:42.918Z,2.17
2023-04-30T18:39:12.254Z,2.50
2023-04-30T18:41:39.736Z,2.50
2023-04-30T18:44:10.925Z,2.80
2023-04-30T18:46:38.393Z,1.90
2023-04-30T18:49:06.226Z,2.03
2023-04-30T18:51:33.768Z,2.10
2023-04-30T18:54:02.601Z,1.93
2023-04-30T18:56:30.091Z,2.00
2023-04-30T18:58:57.693Z,2.40
2023-04-30T19:01:27.354Z,2.80
2023-04-30T19:03:55.329Z,2.73
2023-04-30T19:06:22.918Z,2.60
2023-04-30T19:08:50.567Z,3.20
2023-04-30T19:11:19.900Z,4.80
2023-04-30T19:13:47.354Z,4.60
2023-04-30T19:16:14.891Z,3.43
2023-04-30T19:18:42.373Z,2.40
2023-04-30T19:21:09.830Z,2.80
2023-04-30T19:23:38.359Z,3.83
2023-04-30T19:26:05.801Z,3.80
2023-04-30T19:28:34.688Z,2.77
2023-04-30T19:31:02.198Z,3.30
2023-04-30T19:33:30.935Z,2.50
2023-04-30T19:35:58.602Z,3.47
2023-04-30T19:38:26.162Z,3.40
2023-04-30T19:40:55.135Z,3.27
2023-04-30T19:43:23.250Z,3.77
2023-04-30T19:45:53.804Z,3.17
2023-04-30T19:48:22.065Z,3.57
2023-04-30T19:50:50.296Z,3.13
2023-04-30T19:53:18.594Z,3.33
2023-04-30T19:55:46.930Z,4.20
2023-04-30T19:58:14.655Z,3.20
2023-04-30T20:00:44.947Z,3.53
2023-04-30T20:03:15.138Z,3.30
2023-04-30T20:05:43.635Z,3.80
2023-04-30T20:08:11.276Z,3.33
2023-04-30T20:10:40.890Z,3.20
2023-04-30T20:13:09.462Z,3.40
2023-04-30T20:15:37.710Z,3.13
2023-04-30T20:18:05.930Z,2.57
2023-04-30T20:20:35.089Z,3.40
2023-04-30T20:23:14.017Z,3.70
2023-04-30T20:25:42.740Z,3.63
2023-04-30T20:28:10.204Z,3.53
2023-04-30T20:30:37.762Z,3.60
2023-04-30T20:33:05.363Z,3.37
2023-04-30T20:35:33.057Z,3.20
2023-04-30T20:38:02.237Z,3.07
2023-04-30T20:40:29.655Z,3.63
2023-04-30T20:42:57.100Z,3.57
2023-04-30T20:45:24.534Z,3.33
2023-04-30T20:47:52.009Z,3.10
2023-04-30T20:50:20.390Z,3.10
2023-04-30T20:52:48.068Z,3.40
2023-04-30T20:55:17.019Z,3.20
2023-04-30T20:57:44.487Z,2.73
2023-04-30T21:00:14.070Z,3.33
2023-04-30T21:02:41.828Z,3.60
2023-04-30T21:05:10.050Z,3.50
2023-04-30T21:07:37.636Z,3.10
2023-04-30T21:10:06.293Z,3.33
2023-04-30T21:12:36.564Z,3.40
2023-04-30T21:15:04.409Z,3.27
2023-04-30T21:17:32.185Z,3.37
2023-04-30T21:20:00.418Z,3.33
2023-04-30T21:22:28.640Z,2.80
2023-04-30T21:24:56.899Z,2.70
2023-04-30T21:27:24.397Z,3.10
2023-04-30T21:29:53.311Z,3.20
2023-04-30T21:32:24.329Z,2.47
2023-04-30T21:34:51.884Z,2.87
2023-04-30T21:37:19.712Z,2.60
2023-04-30T21:39:47.205Z,2.77
2023-04-30T21:42:14.654Z,3.00
2023-04-30T21:44:42.152Z,4.53
2023-04-30T21:47:10.964Z,3.60
2023-04-30T21:49:38.721Z,4.00
2023-04-30T21:52:08.278Z,3.30
2023-04-30T21:54:35.807Z,3.40
2023-04-30T21:57:03.683Z,3.30
2023-04-30T21:59:31.225Z,2.73
2023-04-30T22:02:03.083Z,2.97
2023-04-30T22:04:34.289Z,3.17
2023-04-30T22:07:01.780Z,3.00
2023-04-30T22:09:29.240Z,3.30
2023-04-30T22:11:57.007Z,2.70
2023-04-30T22:14:24.521Z,3.00
2023-04-30T22:16:52.657Z,2.90
2023-04-30T22:19:20.168Z,2.83
2023-04-30T22:21:48.986Z,2.70
2023-04-30T22:24:16.430Z,2.67
2023-04-30T22:26:44.187Z,3.00
2023-04-30T22:29:11.618Z,2.63
2023-04-30T22:31:39.075Z,3.50
2023-04-30T22:34:07.471Z,2.70
2023-04-30T22:36:34.975Z,2.87
2023-04-30T22:39:04.428Z,3.67
2023-04-30T22:41:34.128Z,2.83
2023-04-30T22:44:01.705Z,2.73
2023-04-30T22:46:29.801Z,3.07
2023-04-30T22:48:57.553Z,3.10
2023-04-30T22:51:26.399Z,2.90
2023-04-30T22:53:54.872Z,3.00
2023-04-30T22:56:24.174Z,2.70
2023-04-30T22:58:51.660Z,3.03
2023-04-30T23:01:20.023Z,3.50
2023-04-30T23:03:47.628Z,3.47
2023-04-30T23:06:15.207Z,2.53
2023-04-30T23:08:42.666Z,3.27
2023-04-30T23:11:10.224Z,3.57
2023-04-30T23:13:39.268Z,2.80
2023-04-30T23:16:10.068Z,3.10
2023-04-30T23:18:37.657Z,2.30
2023-04-30T23:21:06.822Z,3.57
2023-04-30T23:23:34.294Z,3.03
2023-04-30T23:26:01.840Z,3.27
2023-04-30T23:28:29.427Z,3.50
2023-04-30T23:30:58.986Z,3.23
2023-04-30T23:33:26.752Z,3.20
2023-04-30T23:35:54.558Z,2.50
2023-04-30T23:38:22.289Z,2.90
2023-04-30T23:40:49.781Z,2.80
2023-04-30T23:43:17.247Z,3.50
2023-04-30T23:45:44.728Z,2.93
2023-04-30T23:48:13.604Z,2.67
2023-04-30T23:50:41.603Z,3.53
2023-04-30T23:53:09.090Z,2.87
2023-04-30T23:55:36.520Z,3.73
2023-04-30T23:58:04.317Z,3.20
